Time;durP1;ratioP1;P1;durP2;ratioP2;P2;SDS_P1;SDS_P2;PMS_P1;PMS_P2;Temp;Humidity;BMP_temperature;BMP_pressure;BME280_temperature;BME280_humidity;BME280_pressure;Samples;Min_cycle;Max_cycle;Signal;HPM_P1;HPM_P2
2021/06/27 00:01:52;;;;;;;10.15;5.63;;;17.00;91.50;;;;;;5056808;28;19931;-73
2021/06/27 00:04:18;;;;;;;;;;;17.00;91.70;;;;;;5057223;28;20028;-75
2021/06/27 00:06:44;;;;;;;9.68;5.53;;;16.90;91.10;;;;;;5056615;28;19915;-74
2021/06/27 00:09:10;;;;;;;11.45;6.00;;;16.80;91.90;;;;;;5057085;28;20028;-75
2021/06/27 00:11:36;;;;;;;12.23;6.47;;;16.60;92.10;;;;;;5056614;28;20024;-74
2021/06/27 00:14:02;;;;;;;;;;;16.60;92.10;;;;;;5057013;28;20377;-73
2021/06/27 00:16:30;;;;;;;12.10;5.70;;;16.60;92.00;;;;;;5055296;28;20015;-74
2021/06/27 00:18:57;;;;;;;9.27;5.75;;;16.80;92.20;;;;;;5056510;28;20071;-74
2021/06/27 00:21:24;;;;;;;10.07;6.07;;;16.90;92.40;;;;;;5056625;28;20386;-75
2021/06/27 00:23:50;;;;;;;9.88;5.22;;;16.90;92.40;;;;;;5056327;28;20048;-75
2021/06/27 00:26:19;;;;;;;11.10;5.70;;;17.00;92.90;;;;;;5056401;28;20025;-73
2021/06/27 00:28:45;;;;;;;12.07;4.88;;;16.90;92.60;;;;;;5056369;28;20031;-75
2021/06/27 00:31:13;;;;;;;12.23;5.07;;;16.90;93.20;;;;;;5056258;28;20021;-74
2021/06/27 00:33:39;;;;;;;8.73;5.22;;;17.00;93.20;;;;;;5056249;28;20021;-74
2021/06/27 00:36:06;;;;;;;10.50;5.18;;;17.00;92.20;;;;;;5056152;28;20045;-75
2021/06/27 00:38:32;;;;;;;12.40;5.82;;;17.00;92.60;;;;;;5054728;28;20071;-75
2021/06/27 00:40:58;;;;;;;8.88;5.10;;;17.00;91.90;;;;;;5054904;28;20021;-74
2021/06/27 00:43:23;;;;;;;;;;;16.90;92.80;;;;;;5055574;28;20385;-74
2021/06/27 00:45:49;;;;;;;11.30;5.30;;;16.80;91.80;;;;;;5054728;28;19912;-74
2021/06/27 00:48:15;;;;;;;;;;;16.80;91.70;;;;;;5055160;28;20420;-75
2021/06/27 00:50:48;;;;;;;9.80;5.43;;;16.90;92.00;;;;;;5054902;28;19912;-74
2021/06/27 00:53:15;;;;;;;11.15;5.60;;;16.80;92.40;;;;;;5054744;28;20052;-73
2021/06/27 00:55:41;;;;;;;12.35;5.90;;;16.80;92.70;;;;;;5054208;28;20389;-74
2021/06/27 00:58:07;;;;;;;9.55;5.18;;;16.90;92.70;;;;;;5054604;28;20388;-75
2021/06/27 01:00:35;;;;;;;;;;;17.00;91.70;;;;;;5054934;28;20025;-75
2021/06/27 01:03:01;;;;;;;11.63;5.47;;;16.90;92.10;;;;;;5054597;28;19950;-74
2021/06/27 01:05:28;;;;;;;;;;;16.80;92.00;;;;;;5054607;28;20033;-74
2021/06/27 01:07:55;;;;;;;9.40;5.38;;;16.80;92.10;;;;;;5054582;28;19904;-74
2021/06/27 01:10:21;;;;;;;9.75;5.25;;;16.90;92.80;;;;;;5054499;28;20105;-74
2021/06/27 01:12:47;;;;;;;;;;;16.90;92.90;;;;;;5054747;28;20096;-74
2021/06/27 01:15:15;;;;;;;9.70;5.75;;;16.80;92.90;;;;;;5054254;28;19904;-75
2021/06/27 01:17:43;;;;;;;11.90;5.88;;;16.80;92.70;;;;;;5054281;28;20503;-75
2021/06/27 01:20:15;;;;;;;13.35;6.72;;;16.80;92.30;;;;;;5054158;28;20426;-75
2021/06/27 01:22:42;;;;;;;13.43;6.80;;;16.50;92.00;;;;;;5054215;28;20053;-74
2021/06/27 01:25:10;;;;;;;11.38;5.00;;;16.60;92.40;;;;;;5054080;28;20083;-74
2021/06/27 01:27:36;;;;;;;9.25;4.78;;;16.70;92.70;;;;;;5054315;28;20025;-75
2021/06/27 01:30:04;;;;;;;9.15;4.72;;;16.80;92.30;;;;;;5054272;28;20021;-75
2021/06/27 01:32:31;;;;;;;12.60;5.30;;;16.80;92.00;;;;;;5054008;28;20021;-75
2021/06/27 01:34:57;;;;;;;9.48;4.57;;;16.90;92.10;;;;;;5054025;28;20159;-74
2021/06/27 01:37:22;;;;;;;9.07;4.78;;;16.90;92.90;;;;;;5008118;28;1330225;-75
2021/06/27 01:39:48;;;;;;;;;;;16.80;93.00;;;;;;5055296;28;20029;-74
2021/06/27 01:42:14;;;;;;;7.28;4.28;;;16.90;93.10;;;;;;5054789;28;20042;-76
2021/06/27 01:44:39;;;;;;;;;;;16.90;93.00;;;;;;5055311;28;20048;-74
2021/06/27 01:47:05;;;;;;;9.52;4.70;;;16.90;92.90;;;;;;5054598;28;19909;-75
2021/06/27 01:49:31;;;;;;;;;;;16.90;92.70;;;;;;5055071;28;20021;-74
2021/06/27 01:51:57;;;;;;;13.45;5.30;;;16.90;92.10;;;;;;5054723;28;19904;-74
2021/06/27 01:54:23;;;;;;;;;;;16.80;92.30;;;;;;5055069;28;20040;-74
2021/06/27 01:56:48;;;;;;;12.00;5.45;;;16.70;92.40;;;;;;5053179;28;19912;-74
2021/06/27 01:59:14;;;;;;;;;;;16.70;92.50;;;;;;5054876;28;20029;-75
2021/06/27 02:01:40;;;;;;;14.52;6.30;;;16.60;91.70;;;;;;5054557;28;19909;-73
2021/06/27 02:04:08;;;;;;;10.77;5.53;;;16.50;91.80;;;;;;5054628;28;20021;-74
2021/06/27 02:06:40;;;;;;;14.48;7.53;;;16.50;92.40;;;;;;5053442;28;20029;-75
2021/06/27 02:09:10;;;;;;;11.98;6.07;;;16.40;91.60;;;;;;5054326;28;20017;-74
2021/06/27 02:11:36;;;;;;;12.30;7.07;;;16.20;92.60;;;;;;5054364;28;20424;-74
2021/06/27 02:14:03;;;;;;;;;;;16.30;93.20;;;;;;5054549;28;20048;-73
2021/06/27 02:16:29;;;;;;;12.95;6.43;;;16.40;93.30;;;;;;5054108;28;19905;-75
2021/06/27 02:18:54;;;;;;;;;;;16.60;92.60;;;;;;5054467;28;20378;-73
2021/06/27 02:21:35;;;;;;;9.52;5.65;;;16.50;92.20;;;;;;5054005;28;20281;-75
2021/06/27 02:24:03;;;;;;;16.08;7.47;;;16.50;92.60;;;;;;5054077;28;20021;-73
2021/06/27 02:26:29;;;;;;;16.00;7.10;;;16.40;92.10;;;;;;5053956;28;20036;-74
2021/06/27 02:28:57;;;;;;;;;;;16.20;92.70;;;;;;5054291;28;20013;-74
2021/06/27 02:31:23;;;;;;;16.23;9.02;;;16.40;93.10;;;;;;5052256;28;19999;-74
2021/06/27 02:33:48;;;;;;;;;;;16.50;91.90;;;;;;5054356;28;20017;-73
2021/06/27 02:36:15;;;;;;;12.98;7.15;;;16.20;92.50;;;;;;5053647;28;19987;-74
2021/06/27 02:38:40;;;;;;;16.60;8.32;;;16.30;92.70;;;;;;5053707;28;20036;-73
2021/06/27 02:41:07;;;;;;;;;;;16.10;92.60;;;;;;5054025;28;20461;-75
2021/06/27 02:43:33;;;;;;;12.20;6.68;;;16.20;92.70;;;;;;5053966;28;19905;-76
2021/06/27 02:45:59;;;;;;;;;;;16.40;92.80;;;;;;5054210;28;20090;-74
2021/06/27 02:48:25;;;;;;;12.02;6.38;;;16.40;92.90;;;;;;5053647;28;20268;-74
2021/06/27 02:50:50;;;;;;;;;;;16.50;92.90;;;;;;5053878;28;20021;-74
2021/06/27 02:53:16;;;;;;;10.57;6.75;;;16.60;92.40;;;;;;5053122;28;19904;-75
2021/06/27 02:55:42;;;;;;;;;;;16.40;92.80;;;;;;5053790;28;20047;-75
2021/06/27 02:58:08;;;;;;;14.50;6.55;;;16.40;93.20;;;;;;5053397;28;19912;-74
2021/06/27 03:00:33;;;;;;;;;;;16.60;92.60;;;;;;5052524;28;20116;-74
2021/06/27 03:03:00;;;;;;;32.67;10.82;;;16.70;92.10;;;;;;5053294;28;19948;-74
2021/06/27 03:05:26;;;;;;;18.75;8.98;;;16.30;91.30;;;;;;5053249;28;20017;-74
2021/06/27 03:07:52;;;;;;;14.55;7.88;;;16.00;92.40;;;;;;5053530;28;20031;-74
2021/06/27 03:10:18;;;;;;;;;;;16.10;93.00;;;;;;5053644;28;20036;-74
2021/06/27 03:12:47;;;;;;;11.15;7.35;;;16.20;92.30;;;;;;5053239;28;19912;-73
2021/06/27 03:15:15;;;;;;;10.93;7.22;;;16.40;93.00;;;;;;5053189;28;20120;-74
2021/06/27 03:17:41;;;;;;;16.73;8.25;;;16.40;92.90;;;;;;5053039;28;20049;-75
2021/06/27 03:20:10;;;;;;;12.10;7.15;;;16.60;92.30;;;;;;5053095;28;20048;-74
2021/06/27 03:22:36;;;;;;;12.38;8.63;;;16.60;92.00;;;;;;5053057;28;20025;-75
2021/06/27 03:25:04;;;;;;;12.75;7.10;;;16.50;91.70;;;;;;5053005;28;20479;-74
2021/06/27 03:27:30;;;;;;;12.98;7.57;;;16.20;92.70;;;;;;5052905;28;20496;-74
2021/06/27 03:29:56;;;;;;;11.60;7.60;;;16.40;91.90;;;;;;5051668;28;20021;-75
2021/06/27 03:32:22;;;;;;;;;;;16.30;92.30;;;;;;5053383;28;20032;-74
2021/06/27 03:34:47;;;;;;;10.90;7.28;;;16.10;92.50;;;;;;5052853;28;19987;-73
2021/06/27 03:37:13;;;;;;;;;;;16.10;92.60;;;;;;5053043;28;20049;-73
2021/06/27 03:39:39;;;;;;;15.70;6.88;;;16.00;92.70;;;;;;5053060;28;19912;-73
2021/06/27 03:42:05;;;;;;;;;;;16.10;93.40;;;;;;5053313;28;20035;-74
2021/06/27 03:44:30;;;;;;;14.57;6.90;;;16.30;93.20;;;;;;5052910;28;19999;-74
2021/06/27 03:46:56;;;;;;;;;;;16.40;92.50;;;;;;5053198;28;20047;-75
2021/06/27 03:49:22;;;;;;;11.20;6.30;;;16.40;92.60;;;;;;5052816;28;19913;-74
2021/06/27 03:51:48;;;;;;;11.35;6.70;;;16.50;92.40;;;;;;5051530;28;20025;-75
2021/06/27 03:54:14;;;;;;;;;;;16.60;92.00;;;;;;5053160;28;20014;-74
2021/06/27 03:56:40;;;;;;;18.10;7.68;;;16.20;91.40;;;;;;5052721;28;19952;-75
2021/06/27 03:59:06;;;;;;;;;;;15.90;92.60;;;;;;5051858;28;20028;-74
2021/06/27 04:01:32;;;;;;;43.70;8.50;;;15.80;92.70;;;;;;5052903;28;19954;-74
2021/06/27 04:03:58;;;;;;;9.93;6.40;;;15.70;93.10;;;;;;5051363;28;20025;-75
2021/06/27 04:06:24;;;;;;;;;;;15.90;93.50;;;;;;5052998;28;20104;-75
2021/06/27 04:08:50;;;;;;;9.52;6.10;;;16.20;92.90;;;;;;5052832;28;20376;-74
2021/06/27 04:11:15;;;;;;;;;;;16.30;93.10;;;;;;5053022;28;20029;-73
2021/06/27 04:13:42;;;;;;;14.75;6.82;;;16.40;92.60;;;;;;5052598;28;20233;-74
2021/06/27 04:16:07;;;;;;;12.77;7.50;;;16.40;92.20;;;;;;5052571;28;20102;-74
2021/06/27 04:18:35;;;;;;;18.52;7.20;;;16.40;92.20;;;;;;5052597;28;20064;-74
2021/06/27 04:21:01;;;;;;;16.88;7.32;;;16.20;92.70;;;;;;5052302;28;20033;-75
2021/06/27 04:23:30;;;;;;;58.38;11.25;;;16.10;92.70;;;;;;5052511;28;20562;-74
2021/06/27 04:25:55;;;;;;;93.93;10.98;;;16.00;92.70;;;;;;5052373;28;20025;-73
2021/06/27 04:28:21;;;;;;;10.23;7.25;;;15.90;92.60;;;;;;5052468;28;20418;-73
2021/06/27 04:30:47;;;;;;;;;;;15.80;93.40;;;;;;5055838;28;20132;-74
2021/06/27 04:33:13;;;;;;;9.60;6.57;;;16.10;93.60;;;;;;5056502;28;20361;-75
2021/06/27 04:35:39;;;;;;;;;;;16.20;92.60;;;;;;5056455;28;20374;-73
2021/06/27 04:38:07;;;;;;;10.25;6.57;;;16.00;92.00;;;;;;5055596;28;19967;-75
2021/06/27 04:40:34;;;;;;;16.85;7.35;;;16.00;93.00;;;;;;5055966;28;20070;-74
2021/06/27 04:43:00;;;;;;;9.68;6.28;;;16.10;92.60;;;;;;5055868;28;20401;-73
2021/06/27 04:45:26;;;;;;;;;;;16.10;92.80;;;;;;5056387;28;20025;-75
2021/06/27 04:47:52;;;;;;;9.73;6.55;;;16.30;92.70;;;;;;5056113;28;20388;-73
2021/06/27 04:50:17;;;;;;;;;;;16.40;92.00;;;;;;5056418;28;20013;-74
2021/06/27 04:52:43;;;;;;;12.23;7.13;;;16.40;93.00;;;;;;5055760;28;19908;-74
2021/06/27 04:55:09;;;;;;;;;;;16.50;92.20;;;;;;5056117;28;20052;-74
2021/06/27 04:57:35;;;;;;;13.88;7.22;;;16.50;91.50;;;;;;5056003;28;20033;-74
2021/06/27 05:00:03;;;;;;;;;;;16.40;92.10;;;;;;5056320;28;20057;-75
2021/06/27 05:02:29;;;;;;;9.35;6.43;;;16.30;92.60;;;;;;5055529;28;19905;-74
2021/06/27 05:04:54;;;;;;;;;;;16.20;92.80;;;;;;5055926;28;20442;-75
2021/06/27 05:07:21;;;;;;;14.48;7.00;;;16.20;92.20;;;;;;5055424;28;20003;-75
2021/06/27 05:09:49;;;;;;;57.08;11.07;;;16.30;92.30;;;;;;5055452;28;20087;-74
2021/06/27 05:12:15;;;;;;;13.38;7.28;;;16.30;91.70;;;;;;5055521;28;20025;-74
2021/06/27 05:14:40;;;;;;;;;;;16.10;92.00;;;;;;5055874;28;20059;-74
2021/06/27 05:17:06;;;;;;;11.57;6.95;;;15.90;92.80;;;;;;5055286;28;19940;-76
2021/06/27 05:19:32;;;;;;;;;;;16.10;92.70;;;;;;5055685;28;20025;-75
2021/06/27 05:21:57;;;;;;;10.77;6.10;;;16.40;92.10;;;;;;5055192;28;20285;-74
2021/06/27 05:24:23;;;;;;;;;;;16.50;92.60;;;;;;5055527;28;20025;-76
2021/06/27 05:26:49;;;;;;;10.13;5.25;;;16.70;92.80;;;;;;5055023;28;20368;-75
2021/06/27 05:29:14;;;;;;;;;;;16.90;92.50;;;;;;5054180;28;20477;-75
2021/06/27 05:31:40;;;;;;;8.93;5.13;;;16.80;91.40;;;;;;5055223;28;19905;-73
2021/06/27 05:34:06;;;;;;;;;;;16.80;91.80;;;;;;5055513;28;20025;-74
2021/06/27 05:36:38;;;;;;;7.97;4.97;;;16.90;91.80;;;;;;5054811;28;19996;-74
2021/06/27 05:39:09;;;;;;;7.70;4.55;;;17.10;90.80;;;;;;5054896;28;20032;-75
2021/06/27 05:41:36;;;;;;;9.80;5.65;;;17.20;91.30;;;;;;5053697;28;20028;-74
2021/06/27 05:44:03;;;;;;;9.02;5.18;;;17.10;90.80;;;;;;5054795;28;20033;-73
2021/06/27 05:46:29;;;;;;;7.90;4.68;;;17.00;91.50;;;;;;5054686;28;20389;-75
2021/06/27 05:48:55;;;;;;;7.95;4.70;;;17.10;91.00;;;;;;5054706;28;20021;-74
2021/06/27 05:51:21;;;;;;;11.38;5.05;;;17.00;91.10;;;;;;5054644;28;20072;-75
2021/06/27 05:53:46;;;;;;;;;;;17.10;90.70;;;;;;5055157;28;20025;-74
2021/06/27 05:56:16;;;;;;;8.45;4.93;;;17.10;90.60;;;;;;5054866;28;19909;-73
2021/06/27 05:58:43;;;;;;;8.57;4.75;;;17.10;90.90;;;;;;5054504;28;20032;-75
2021/06/27 06:01:12;;;;;;;8.40;4.38;;;17.20;90.70;;;;;;5054390;28;20033;-74
2021/06/27 06:03:38;;;;;;;7.78;4.72;;;17.40;90.40;;;;;;5054861;28;20017;-74
2021/06/27 06:06:05;;;;;;;9.55;4.22;;;17.50;90.30;;;;;;5054297;28;20063;-75
2021/06/27 06:08:32;;;;;;;8.40;4.35;;;17.80;90.50;;;;;;5054300;28;20024;-74
2021/06/27 06:10:57;;;;;;;8.40;4.20;;;18.00;89.10;;;;;;5054266;28;20049;-74
2021/06/27 06:13:23;;;;;;;7.97;4.22;;;18.30;88.20;;;;;;5054492;28;20056;-75
2021/06/27 06:15:49;;;;;;;7.55;3.97;;;18.30;88.30;;;;;;5054149;28;20029;-76
2021/06/27 06:18:15;;;;;;;8.63;4.05;;;18.50;87.30;;;;;;5054085;28;20029;-74
2021/06/27 06:20:41;;;;;;;8.07;3.70;;;18.70;86.80;;;;;;5054151;28;20109;-74
2021/06/27 06:23:07;;;;;;;7.53;3.60;;;18.70;85.40;;;;;;5054078;28;20112;-73
2021/06/27 06:25:33;;;;;;;6.90;3.75;;;18.80;83.40;;;;;;5053935;28;20029;-74
2021/06/27 06:28:02;;;;;;;9.15;3.95;;;19.00;84.10;;;;;;5052816;28;20454;-73
2021/06/27 06:30:28;;;;;;;6.60;3.78;;;19.10;83.40;;;;;;5052189;28;20059;-73
2021/06/27 06:32:53;;;;;;;8.68;3.47;;;19.30;82.50;;;;;;5054017;28;20397;-74
2021/06/27 06:35:19;;;;;;;6.18;3.30;;;19.50;81.30;;;;;;5052489;28;20040;-75
2021/06/27 06:37:45;;;;;;;8.57;3.53;;;19.60;80.00;;;;;;5053571;28;20437;-74
2021/06/27 06:40:11;;;;;;;9.38;3.70;;;19.60;79.60;;;;;;5054058;28;20029;-74
2021/06/27 06:42:37;;;;;;;8.73;3.80;;;19.50;80.20;;;;;;5053699;28;20021;-74
2021/06/27 06:45:04;;;;;;;7.78;3.58;;;19.40;80.80;;;;;;5053613;28;20021;-75
2021/06/27 06:47:30;;;;;;;7.20;3.80;;;19.10;80.50;;;;;;5053574;28;20078;-75
2021/06/27 06:49:56;;;;;;;9.00;3.72;;;19.10;80.50;;;;;;5053565;28;20025;-74
2021/06/27 06:52:22;;;;;;;7.68;3.30;;;19.00;80.40;;;;;;5053362;28;20017;-73
2021/06/27 06:54:49;;;;;;;7.28;3.72;;;19.00;81.60;;;;;;5053525;28;20385;-75
2021/06/27 06:57:15;;;;;;;7.43;3.47;;;19.10;80.10;;;;;;5053448;28;20021;-74
2021/06/27 06:59:42;;;;;;;7.53;3.65;;;19.30;80.70;;;;;;5053438;28;20534;-73
2021/06/27 07:02:08;;;;;;;7.85;3.80;;;19.60;79.10;;;;;;5052046;28;20431;-74
2021/06/27 07:04:34;;;;;;;7.30;3.50;;;19.90;77.50;;;;;;5053340;28;20029;-74
2021/06/27 07:07:00;;;;;;;6.20;3.35;;;19.80;76.50;;;;;;5053188;28;20025;-74
2021/06/27 07:09:26;;;;;;;6.45;3.20;;;19.60;78.60;;;;;;5053246;28;20025;-74
2021/06/27 07:11:52;;;;;;;9.15;3.40;;;19.50;77.20;;;;;;5053217;28;20051;-75
2021/06/27 07:14:18;;;;;;;8.98;3.70;;;19.50;78.00;;;;;;5053428;28;20029;-74
2021/06/27 07:16:44;;;;;;;8.27;3.97;;;19.40;80.30;;;;;;5053194;28;20440;-74
2021/06/27 07:19:10;;;;;;;6.90;3.60;;;19.40;79.50;;;;;;5051833;28;20033;-74
2021/06/27 07:21:39;;;;;;;8.18;3.50;;;19.40;80.20;;;;;;5053090;28;20392;-75
2021/06/27 07:24:05;;;;;;;7.78;3.80;;;19.40;79.40;;;;;;5052626;28;20032;-74
2021/06/27 07:26:30;;;;;;;7.75;3.75;;;19.60;77.60;;;;;;5052813;28;20052;-73
2021/06/27 07:28:56;;;;;;;6.07;3.20;;;19.60;78.30;;;;;;5051706;28;20461;-76
2021/06/27 07:31:22;;;;;;;6.55;3.25;;;19.90;77.80;;;;;;5052989;28;20096;-74
2021/06/27 07:33:48;;;;;;;7.65;3.00;;;20.30;74.40;;;;;;5053062;28;20500;-74
2021/06/27 07:36:14;;;;;;;5.95;2.70;;;20.80;74.30;;;;;;5051431;28;20064;-74
2021/06/27 07:38:39;;;;;;;6.05;3.22;;;21.40;72.40;;;;;;5052825;28;20033;-73
2021/06/27 07:41:05;;;;;;;6.68;2.35;;;21.70;71.30;;;;;;5052892;28;20095;-74
2021/06/27 07:43:33;;;;;;;5.45;2.30;;;21.60;70.10;;;;;;5052988;28;20029;-74
2021/06/27 07:45:59;;;;;;;4.00;2.00;;;21.50;68.20;;;;;;5052719;28;20025;-75
2021/06/27 07:48:25;;;;;;;3.20;2.10;;;20.90;68.30;;;;;;5052936;28;20025;-74
2021/06/27 07:50:51;;;;;;;5.63;2.42;;;20.30;70.60;;;;;;5052780;28;20021;-73
2021/06/27 07:53:17;;;;;;;5.15;2.15;;;20.00;73.10;;;;;;5052787;28;20028;-74
2021/06/27 07:55:43;;;;;;;6.38;2.40;;;19.80;72.80;;;;;;5052721;28;20021;-74
2021/06/27 07:58:08;;;;;;;5.07;2.65;;;19.60;75.10;;;;;;5052904;28;20024;-73
2021/06/27 08:00:34;;;;;;;5.47;2.30;;;19.40;76.30;;;;;;5051363;28;20075;-74
2021/06/27 08:03:00;;;;;;;5.25;2.17;;;19.30;75.80;;;;;;5052638;28;20083;-74
2021/06/27 08:05:26;;;;;;;6.30;2.33;;;19.30;76.50;;;;;;5055368;28;20108;-73
2021/06/27 08:07:52;;;;;;;6.93;2.30;;;19.40;76.30;;;;;;5056506;28;20021;-73
2021/06/27 08:10:18;;;;;;;4.90;2.25;;;19.50;76.30;;;;;;5056492;28;20021;-73
2021/06/27 08:12:44;;;;;;;5.60;2.08;;;19.70;75.20;;;;;;5056502;28;20028;-74
2021/06/27 08:15:17;;;;;;;6.75;2.45;;;19.60;75.20;;;;;;5056518;28;20500;-74
2021/06/27 08:17:44;;;;;;;6.22;2.40;;;19.80;75.10;;;;;;5056617;28;20100;-75
2021/06/27 08:20:10;;;;;;;6.18;2.20;;;19.90;74.90;;;;;;5056358;28;20473;-75
2021/06/27 08:22:36;;;;;;;4.55;2.15;;;20.30;73.10;;;;;;5056273;28;20103;-74
2021/06/27 08:25:03;;;;;;;4.93;2.10;;;20.80;70.80;;;;;;5055168;28;20116;-74
2021/06/27 08:27:28;;;;;;;5.10;2.30;;;21.20;71.10;;;;;;5055979;28;20021;-72
2021/06/27 08:29:54;;;;;;;5.60;2.40;;;21.20;70.30;;;;;;5056295;28;20446;-74
2021/06/27 08:32:20;;;;;;;7.28;2.60;;;20.90;70.30;;;;;;5056128;28;20051;-73
2021/06/27 08:34:46;;;;;;;4.38;2.40;;;20.40;71.10;;;;;;5056056;28;20032;-73
2021/06/27 08:37:11;;;;;;;6.55;2.50;;;20.40;72.60;;;;;;5056156;28;20045;-75
2021/06/27 08:39:37;;;;;;;4.15;2.50;;;21.20;71.40;;;;;;5055895;28;20025;-75
2021/06/27 08:42:03;;;;;;;6.47;2.63;;;21.40;68.40;;;;;;5055943;28;20021;-73
2021/06/27 08:44:29;;;;;;;5.35;2.67;;;21.40;69.20;;;;;;5055889;28;20040;-73
2021/06/27 08:46:57;;;;;;;6.10;2.75;;;21.40;69.70;;;;;;5055886;28;20404;-73
2021/06/27 08:49:23;;;;;;;4.60;2.53;;;22.10;68.70;;;;;;5055754;28;20099;-75
2021/06/27 08:51:50;;;;;;;9.57;3.00;;;22.10;67.70;;;;;;5054367;28;20374;-75
2021/06/27 08:54:16;;;;;;;6.85;2.88;;;21.70;68.50;;;;;;5055176;28;20052;-74
2021/06/27 08:56:42;;;;;;;6.18;2.97;;;21.50;70.40;;;;;;5055672;28;20476;-74
2021/06/27 08:59:08;;;;;;;5.70;2.70;;;21.90;69.00;;;;;;5055567;28;20029;-75
2021/06/27 09:01:33;;;;;;;9.15;3.05;;;22.10;69.10;;;;;;5055324;28;20108;-75
2021/06/27 09:03:59;;;;;;;7.10;3.00;;;22.30;68.90;;;;;;5055643;28;20548;-75
2021/06/27 09:06:32;;;;;;;6.03;2.60;;;21.90;68.50;;;;;;5055436;28;20143;-75
2021/06/27 09:09:21;;;;;;;7.85;2.70;;;21.70;70.70;;;;;;5055532;28;20028;-75
2021/06/27 09:12:07;;;;;;;5.43;2.22;;;21.70;70.20;;;;;;5055670;28;20481;-75
2021/06/27 09:14:39;;;;;;;5.75;2.50;;;21.40;69.10;;;;;;5055531;28;20427;-75
2021/06/27 09:17:19;;;;;;;5.15;2.35;;;20.70;71.80;;;;;;5055539;28;20036;-73
2021/06/27 09:19:55;;;;;;;6.55;2.60;;;20.70;73.60;;;;;;5055585;28;20023;-75
2021/06/27 09:22:23;;;;;;;5.53;2.50;;;20.80;74.50;;;;;;5055126;28;20021;-73
2021/06/27 09:24:49;;;;;;;4.97;2.60;;;20.80;72.30;;;;;;5055168;28;20025;-76
2021/06/27 09:27:24;;;;;;;8.80;2.90;;;20.50;73.30;;;;;;5055054;28;20055;-75
2021/06/27 09:29:55;;;;;;;6.03;2.75;;;20.40;75.20;;;;;;5055260;28;20044;-74
2021/06/27 09:32:24;;;;;;;8.98;2.90;;;20.30;76.30;;;;;;5055235;28;20036;-73
2021/06/27 09:34:51;;;;;;;6.57;3.00;;;20.20;75.70;;;;;;5055082;28;20394;-74
2021/06/27 09:37:27;;;;;;;9.23;3.20;;;20.30;76.50;;;;;;5054777;28;20068;-73
2021/06/27 09:39:59;;;;;;;6.40;2.55;;;20.20;77.10;;;;;;5055046;28;20028;-73
2021/06/27 09:42:25;;;;;;;8.40;2.60;;;20.20;77.90;;;;;;5054808;28;20025;-74
2021/06/27 09:45:03;;;;;;;5.43;2.08;;;20.10;78.20;;;;;;5054810;28;20550;-77
2021/06/27 09:47:29;;;;;;;4.55;1.75;;;20.40;76.70;;;;;;5055020;28;20473;-73
2021/06/27 09:49:55;;;;;;;2.75;1.63;;;20.90;73.60;;;;;;5054598;28;20017;-75
2021/06/27 09:52:42;;;;;;;4.82;1.90;;;20.80;73.60;;;;;;5054589;28;20029;-75
2021/06/27 09:55:10;;;;;;;6.97;2.00;;;20.80;72.20;;;;;;5055003;28;20417;-74
2021/06/27 09:57:37;;;;;;;4.18;2.00;;;21.10;72.70;;;;;;5054795;28;20019;-75
2021/06/27 10:00:23;;;;;;;4.43;2.10;;;21.60;71.00;;;;;;5053182;28;20385;-74
2021/06/27 10:02:59;;;;;;;5.38;2.05;;;21.20;72.60;;;;;;5052547;28;20106;-74
2021/06/27 10:05:25;;;;;;;6.55;2.20;;;21.30;71.50;;;;;;5054246;28;20021;-74
2021/06/27 10:07:50;;;;;;;6.40;2.17;;;21.30;72.90;;;;;;5054337;28;20025;-73
2021/06/27 10:10:21;;;;;;;5.70;2.20;;;21.50;73.40;;;;;;5054267;28;20018;-75
2021/06/27 10:12:46;;;;;;;4.13;2.10;;;21.30;73.20;;;;;;5054262;28;20478;-75
2021/06/27 10:15:14;;;;;;;4.50;2.17;;;20.90;73.20;;;;;;5053984;28;20096;-74
2021/06/27 10:17:41;;;;;;;4.95;2.15;;;20.80;75.70;;;;;;5053969;28;20512;-75
2021/06/27 10:20:09;;;;;;;5.07;2.42;;;20.80;75.30;;;;;;5054017;28;20485;-75
2021/06/27 10:22:35;;;;;;;4.68;2.17;;;21.00;73.60;;;;;;5054033;28;20079;-72
2021/06/27 10:25:03;;;;;;;6.15;2.38;;;21.30;74.10;;;;;;5053970;28;20017;-74
2021/06/27 10:27:31;;;;;;;6.38;2.40;;;21.90;71.60;;;;;;5053303;28;20025;-73
2021/06/27 10:29:57;;;;;;;5.78;2.22;;;22.30;68.90;;;;;;5052645;28;20067;-74
2021/06/27 10:32:23;;;;;;;4.53;1.90;;;22.10;69.70;;;;;;5053859;28;20477;-75
2021/06/27 10:34:49;;;;;;;4.38;1.60;;;21.80;70.90;;;;;;5053889;28;20032;-75
2021/06/27 10:37:23;;;;;;;4.97;1.70;;;21.30;71.30;;;;;;5053542;28;20053;-75
2021/06/27 10:40:01;;;;;;;3.83;1.60;;;21.80;70.70;;;;;;5054177;28;20037;-74
2021/06/27 10:42:48;;;;;;;1.65;1.30;;;22.60;66.30;;;;;;5053856;28;20049;-73
2021/06/27 10:45:22;;;;;;;3.45;1.50;;;23.30;66.70;;;;;;5053567;28;20481;-74
2021/06/27 10:47:49;;;;;;;4.35;1.75;;;23.50;63.90;;;;;;5053704;28;20029;-74
2021/06/27 10:50:16;;;;;;;3.85;1.63;;;22.50;66.20;;;;;;5053582;28;20389;-75
2021/06/27 10:53:01;;;;;;;2.58;1.48;;;22.10;67.70;;;;;;5053530;28;20017;-74
2021/06/27 10:55:41;;;;;;;3.95;1.50;;;22.00;68.00;;;;;;5053586;28;20045;-74
2021/06/27 10:58:09;;;;;;;7.22;1.50;;;22.90;65.10;;;;;;5053637;28;20033;-75
2021/06/27 11:00:54;;;;;;;3.08;1.40;;;23.70;62.00;;;;;;5053346;28;20028;-75
2021/06/27 11:03:28;;;;;;;;;;;23.80;61.10;;;;;;5053770;28;20025;-75
2021/06/27 11:05:58;;;;;;;3.33;1.50;;;25.00;59.00;;;;;;5053478;28;19959;-73
2021/06/27 11:08:33;;;;;;;3.58;1.33;;;25.40;58.00;;;;;;5053556;28;20024;-74
2021/06/27 11:11:00;;;;;;;;;;;24.50;59.60;;;;;;5053702;28;20028;-74
2021/06/27 11:13:26;;;;;;;5.43;1.20;;;24.10;60.80;;;;;;5053238;28;19904;-75
2021/06/27 11:15:52;;;;;;;1.75;1.20;;;23.40;62.20;;;;;;5053183;28;20025;-74
2021/06/27 11:18:35;;;;;;;3.72;1.40;;;22.60;63.00;;;;;;5053134;28;20021;-76
2021/06/27 11:21:12;;;;;;;3.55;1.40;;;22.20;66.00;;;;;;5053178;28;20068;-74
2021/06/27 11:23:47;;;;;;;2.40;1.38;;;21.50;68.30;;;;;;5053342;28;20440;-73
2021/06/27 11:26:52;;;;;;;3.83;1.50;;;21.50;68.40;;;;;;5052937;28;20033;-73
2021/06/27 11:29:21;;;;;;;13.57;1.80;;;21.40;69.60;;;;;;5053784;28;20056;-79
2021/06/27 11:31:50;;;;;;;10.50;1.40;;;19.80;86.10;;;;;;5053492;28;20029;-80
2021/06/27 11:34:31;;;;;;;19.25;1.58;;;18.10;97.20;;;;;;5053274;28;20443;-79
2021/06/27 11:37:17;;;;;;;9.70;1.30;;;17.20;99.90;;;;;;5052860;28;20494;-77
2021/06/27 11:39:50;;;;;;;4.57;1.00;;;16.80;99.90;;;;;;5056076;28;20028;-77
2021/06/27 11:42:28;;;;;;;5.43;1.00;;;16.70;99.90;;;;;;5055776;28;20397;-78
2021/06/27 11:45:06;;;;;;;5.55;0.80;;;16.60;99.90;;;;;;5057018;28;20017;-78
2021/06/27 11:47:33;;;;;;;6.40;1.10;;;16.70;99.90;;;;;;5056924;28;20428;-77
2021/06/27 11:50:19;;;;;;;1.17;0.73;;;16.90;99.90;;;;;;5057205;28;20427;-76
2021/06/27 11:52:49;;;;;;;;;;;17.10;99.90;;;;;;5057504;28;20040;-77
2021/06/27 11:55:15;;;;;;;2.70;1.05;;;17.00;99.90;;;;;;5056841;28;19905;-77
2021/06/27 11:57:42;;;;;;;4.43;1.00;;;17.20;99.90;;;;;;5054965;28;20116;-76
2021/06/27 12:00:10;;;;;;;3.80;1.02;;;17.40;99.90;;;;;;5056866;28;20075;-78
2021/06/27 12:02:37;;;;;;;4.20;0.90;;;17.20;99.90;;;;;;5056638;28;20013;-76
2021/06/27 12:05:08;;;;;;;0.95;0.80;;;17.40;99.90;;;;;;5056643;28;20025;-76
2021/06/27 12:07:45;;;;;;;4.43;1.10;;;17.90;99.90;;;;;;5056729;28;20037;-77
2021/06/27 12:10:17;;;;;;;2.58;1.00;;;18.40;99.90;;;;;;5055027;28;20033;-77
2021/06/27 12:13:02;;;;;;;2.42;0.90;;;19.10;99.90;;;;;;5055267;28;20017;-77
2021/06/27 12:15:45;;;;;;;1.30;0.80;;;19.70;99.90;;;;;;5056542;28;20051;-78
2021/06/27 12:18:13;;;;;;;3.30;1.15;;;20.40;99.90;;;;;;5056681;28;20056;-77
2021/06/27 12:20:47;;;;;;;1.17;0.80;;;20.10;97.60;;;;;;5056389;28;20389;-76
2021/06/27 12:23:26;;;;;;;1.17;0.70;;;19.60;97.50;;;;;;5056609;28;20381;-77
2021/06/27 12:25:56;;;;;;;2.55;0.90;;;19.20;96.90;;;;;;5056411;28;20082;-76
2021/06/27 12:28:41;;;;;;;3.58;1.00;;;18.90;98.40;;;;;;5056259;28;20024;-78
2021/06/27 12:31:18;;;;;;;1.92;0.80;;;18.80;97.80;;;;;;5056551;28;20021;-77
2021/06/27 12:33:47;;;;;;;2.88;1.00;;;18.50;98.10;;;;;;5056345;28;20025;-76
2021/06/27 12:36:25;;;;;;;1.83;0.80;;;19.10;99.40;;;;;;5055950;28;20029;-76
2021/06/27 12:38:55;;;;;;;2.67;0.90;;;19.20;98.70;;;;;;5056182;28;20061;-78
2021/06/27 12:41:26;;;;;;;7.07;0.90;;;19.20;98.70;;;;;;5056279;28;20055;-76
2021/06/27 12:43:58;;;;;;;1.20;0.70;;;19.00;98.90;;;;;;5056152;28;20086;-77
2021/06/27 12:46:30;;;;;;;2.15;0.80;;;18.60;98.20;;;;;;5055832;28;20393;-78
2021/06/27 12:49:02;;;;;;;4.93;0.90;;;18.10;97.80;;;;;;5054576;28;20017;-78
2021/06/27 12:51:30;;;;;;;1.55;0.88;;;18.10;99.00;;;;;;5055380;28;20029;-76
2021/06/27 12:54:07;;;;;;;2.22;0.93;;;18.10;99.40;;;;;;5055776;28;20025;-76
2021/06/27 12:56:55;;;;;;;3.10;1.30;;;18.10;98.00;;;;;;5055835;28;20104;-77
2021/06/27 12:59:25;;;;;;;2.25;1.08;;;18.00;98.40;;;;;;5054622;28;20047;-76
2021/06/27 13:01:53;;;;;;;3.08;1.00;;;18.40;98.50;;;;;;5055940;28;20591;-77